TimeCST,TemperatureF,Dew PointF,Humidity,Sea Level PressureIn,VisibilityMPH,Wind Direction,Wind SpeedMPH,Gust SpeedMPH,PrecipitationIn,Events,Conditions,WindDirDegrees,DateUTC
12:56 AM,41.9,39.9,93,29.96,7.0,SW,3.5,-,0.00,Rain,Light Rain,220,2012-12-07 06:56:00
1:56 AM,41.9,41.0,97,29.98,4.0,SW,5.8,-,0.02,Rain,Light Rain,230,2012-12-07 07:56:00
2:08 AM,42.8,41.0,93,29.97,6.0,SW,12.7,-,0.00,Rain,Light Rain,220,2012-12-07 08:08:00
2:56 AM,41.9,41.0,97,29.99,5.0,WSW,5.8,-,0.00,,Overcast,240,2012-12-07 08:56:00
3:19 AM,42.8,41.0,93,29.95,5.0,SW,4.6,-,N/A,,Overcast,230,2012-12-07 09:19:00
3:56 AM,41.9,41.9,100,29.96,3.0,NW,5.8,-,0.00,Rain,Light Rain,310,2012-12-07 09:56:00
4:23 AM,42.8,42.8,100,29.94,4.0,NNW,4.6,-,0.00,Rain,Light Rain,330,2012-12-07 10:23:00
4:49 AM,42.8,42.8,100,29.93,2.0,North,3.5,-,0.01,Rain,Light Rain,360,2012-12-07 10:49:00
4:56 AM,43.0,41.9,96,29.96,3.0,North,3.5,-,0.01,Rain,Light Rain,360,2012-12-07 10:56:00
5:22 AM,42.8,42.8,100,29.93,2.5,NE,4.6,-,0.00,Rain,Light Rain,50,2012-12-07 11:22:00
5:37 AM,42.8,42.8,100,29.93,1.8,ESE,4.6,-,0.01,Rain,Light Rain,110,2012-12-07 11:37:00
5:56 AM,41.9,41.9,100,29.94,2.0,East,6.9,-,0.01,,Scattered Clouds,100,2012-12-07 11:56:00
6:56 AM,41.9,41.9,100,29.96,1.5,Variable,4.6,-,0.00,Rain,Light Rain,0,2012-12-07 12:56:00
7:02 AM,42.8,42.8,100,29.92,2.0,NE,8.1,-,0.00,Rain,Light Rain,50,2012-12-07 13:02:00
7:38 AM,42.8,42.8,100,29.92,1.2,NE,9.2,-,0.01,,Scattered Clouds,40,2012-12-07 13:38:00
7:49 AM,42.8,42.8,100,29.92,1.2,NNE,9.2,-,0.01,,Mostly Cloudy,30,2012-12-07 13:49:00
7:56 AM,41.9,41.9,100,29.95,1.2,NNE,11.5,-,0.01,,Mostly Cloudy,30,2012-12-07 13:56:00
8:56 AM,43.0,43.0,100,29.97,1.0,North,8.1,-,N/A,,Overcast,10,2012-12-07 14:56:00
9:31 AM,42.8,42.8,100,29.95,0.8,NE,6.9,-,N/A,,Overcast,50,2012-12-07 15:31:00
9:56 AM,43.0,43.0,100,29.97,1.0,East,8.1,-,N/A,,Overcast,80,2012-12-07 15:56:00
10:56 AM,43.9,43.9,100,29.96,1.0,East,8.1,-,N/A,,Overcast,90,2012-12-07 16:56:00
11:30 AM,44.6,42.8,93,29.91,1.0,East,10.4,-,N/A,,Overcast,80,2012-12-07 17:30:00
11:32 AM,44.6,42.8,93,29.91,1.8,East,9.2,-,N/A,,Overcast,80,2012-12-07 17:32:00
11:56 AM,45.0,43.9,96,29.91,1.5,East,10.4,-,N/A,,Overcast,80,2012-12-07 17:56:00
12:56 PM,43.9,43.0,97,29.91,1.5,East,5.8,-,N/A,,Overcast,80,2012-12-07 18:56:00
1:56 PM,43.9,43.9,100,29.90,1.0,ENE,8.1,-,0.00,,Overcast,60,2012-12-07 19:56:00
2:56 PM,43.9,43.9,100,29.89,1.0,ENE,10.4,-,N/A,,Overcast,60,2012-12-07 20:56:00
3:56 PM,43.9,43.9,100,29.88,1.0,NE,12.7,-,0.00,Rain,Light Rain,50,2012-12-07 21:56:00
4:56 PM,43.9,43.9,100,29.89,1.5,ENE,11.5,-,0.00,,Overcast,60,2012-12-07 22:56:00
5:56 PM,43.9,43.9,100,29.89,1.5,ENE,10.4,-,N/A,,Overcast,70,2012-12-07 23:56:00
6:34 PM,44.6,44.6,100,29.87,1.2,ENE,9.2,-,N/A,,Overcast,60,2012-12-08 00:34:00
6:56 PM,44.6,44.6,100,29.91,1.0,East,9.2,-,0.00,Rain,Light Rain,80,2012-12-08 00:56:00
7:33 PM,44.6,44.6,100,29.88,1.2,East,8.1,-,0.00,,Overcast,80,2012-12-08 01:33:00
7:40 PM,44.6,44.6,100,29.87,1.0,East,10.4,-,0.00,,Overcast,80,2012-12-08 01:40:00
7:56 PM,43.0,43.0,100,29.90,0.5,East,9.2,-,0.00,Fog,Fog,90,2012-12-08 01:56:00
8:05 PM,42.8,42.8,100,29.87,0.2,East,8.1,-,N/A,Fog,Fog,80,2012-12-08 02:05:00
8:26 PM,42.8,42.8,100,29.87,0.5,ENE,8.1,-,N/A,Fog,Fog,70,2012-12-08 02:26:00
8:56 PM,43.0,43.0,100,29.89,0.5,ENE,8.1,-,N/A,Fog,Fog,70,2012-12-08 02:56:00
9:36 PM,42.8,42.8,100,29.87,0.2,East,8.1,-,N/A,Fog,Fog,80,2012-12-08 03:36:00
9:49 PM,42.8,42.8,100,29.87,0.5,East,6.9,-,N/A,Fog,Fog,80,2012-12-08 03:49:00
9:56 PM,41.9,41.9,100,29.90,0.5,ENE,5.8,-,N/A,Fog,Fog,70,2012-12-08 03:56:00
10:21 PM,42.8,42.8,100,29.86,0.2,ENE,9.2,-,N/A,Fog,Fog,70,2012-12-08 04:21:00
10:49 PM,42.8,42.8,100,29.87,0.5,NE,5.8,-,N/A,Fog,Fog,40,2012-12-08 04:49:00
10:56 PM,41.9,41.9,100,29.90,0.5,NE,6.9,-,N/A,Fog,Fog,50,2012-12-08 04:56:00
11:56 PM,41.9,41.9,100,29.89,0.5,ENE,4.6,-,0.00,Fog,Fog,60,2012-12-08 05:56:00